Tyro, Virginia
Current Conditions -  °F | °C
As of 5:15 PM on Monday 26 Jan 2015 (Local Time) from KW13 Reporting Station
Overcast Overcast  
Wind Chill: 27°   Ceiling: 300
Heat Index: 33°   Visibility: 1.7mi
Dew Point: 32°   Wind: 6mph
Humidity: 98%   Direction: 360°N
Pressure: 29.64"   Gusts: NA
Location:  37.81°N, 79.02°W
Report Text: KW13 262215Z AUTO 36005KT 1 3/4SM OVC003 01/00 A2964 RMK AO1 T00050002
Loading
Personal Weather Stations






























Interactive Weather Map New forecast layout! Learn more

10-Day Weather Forecast

Advertisements
Track Severe Weather on mobile